createdAt,value
2019-01-11T00:00:16.658Z,101071.50
2019-01-11T00:00:55.892Z,101077.86
2019-01-11T00:01:34.153Z,101079.55
2019-01-11T00:02:09.551Z,101083.56
2019-01-11T00:02:44.952Z,101080.06
2019-01-11T00:03:20.640Z,101083.91
2019-01-11T00:03:56.346Z,101074.59
2019-01-11T00:04:31.840Z,101080.47
2019-01-11T00:05:07.352Z,101077.44
2019-01-11T00:05:42.752Z,101085.08
2019-01-11T00:06:18.142Z,101084.22
2019-01-11T00:06:53.612Z,101084.16
2019-01-11T00:07:29.237Z,101081.09
2019-01-11T00:08:05.613Z,101083.59
2019-01-11T00:08:41.107Z,101081.50
2019-01-11T00:09:17.235Z,101079.75
2019-01-11T00:09:52.869Z,101079.38
2019-01-11T00:10:28.506Z,101077.23
2019-01-11T00:11:04.004Z,101084.53
2019-01-11T00:11:39.402Z,101084.53
2019-01-11T00:12:14.802Z,101090.45
2019-01-11T00:12:50.446Z,101087.48
2019-01-11T00:13:26.092Z,101088.72
2019-01-11T00:14:02.435Z,101084.50
2019-01-11T00:14:38.134Z,101085.80
2019-01-11T00:15:13.620Z,101083.73
2019-01-11T00:15:49.126Z,101085.02
2019-01-11T00:16:24.550Z,101088.42
2019-01-11T00:17:00.308Z,101093.40
2019-01-11T00:17:35.885Z,101095.09
2019-01-11T00:18:11.275Z,101090.38
2019-01-11T00:18:46.945Z,101092.92
2019-01-11T00:19:22.463Z,101089.10
2019-01-11T00:20:03.549Z,101093.37
2019-01-11T00:20:34.951Z,101092.95
2019-01-11T00:21:10.583Z,101088.23
2019-01-11T00:21:46.008Z,101084.05
2019-01-11T00:22:21.494Z,101076.52
2019-01-11T00:22:56.866Z,101074.83
2019-01-11T00:23:32.283Z,101072.28
2019-01-11T00:24:07.824Z,101074.11
2019-01-11T00:24:43.212Z,101073.16
2019-01-11T00:25:18.635Z,101071.48
2019-01-11T00:25:54.007Z,101075.16
2019-01-11T00:26:29.418Z,101076.81
2019-01-11T00:27:05.434Z,101072.97
2019-01-11T00:27:40.843Z,101069.95
2019-01-11T00:28:16.236Z,101068.57
2019-01-11T00:28:51.655Z,101071.91
2019-01-11T00:29:27.072Z,101065.23
2019-01-11T00:30:02.533Z,101065.52
2019-01-11T00:30:37.861Z,101072.97
2019-01-11T00:31:13.513Z,101063.68
2019-01-11T00:31:48.950Z,101068.94
2019-01-11T00:32:24.878Z,101064.51
2019-01-11T00:33:00.270Z,101070.77
2019-01-11T00:33:35.675Z,101067.18
2019-01-11T00:34:11.073Z,101062.92
2019-01-11T00:34:46.467Z,101066.29
2019-01-11T00:35:21.858Z,101060.69
2019-01-11T00:35:57.517Z,101065.78
2019-01-11T00:36:33.220Z,101062.78
2019-01-11T00:37:08.656Z,101061.03
2019-01-11T00:37:44.328Z,101058.02
2019-01-11T00:38:19.734Z,101068.33
2019-01-11T00:38:55.114Z,101067.33
2019-01-11T00:39:30.599Z,101065.92
2019-01-11T00:40:06.592Z,101067.51
2019-01-11T00:40:41.996Z,101068.44
2019-01-11T00:41:17.676Z,101065.23
2019-01-11T00:41:53.118Z,101064.92
2019-01-11T00:42:28.926Z,101058.11
2019-01-11T00:43:04.327Z,101070.42
2019-01-11T00:43:39.986Z,101067.81
2019-01-11T00:44:15.957Z,101068.19
2019-01-11T00:44:51.390Z,101071.28
2019-01-11T00:45:27.275Z,101066.92
2019-01-11T00:46:02.677Z,101065.13
2019-01-11T00:46:38.106Z,101063.89
2019-01-11T00:47:13.776Z,101069.36
2019-01-11T00:47:49.254Z,101072.62
2019-01-11T00:48:25.001Z,101067.51
2019-01-11T00:49:00.462Z,101068.33
2019-01-11T00:49:36.100Z,101065.72
2019-01-11T00:50:11.587Z,101066.58
2019-01-11T00:50:47.234Z,101075.48
2019-01-11T00:51:22.635Z,101064.37
2019-01-11T00:51:58.286Z,101070.73
2019-01-11T00:52:33.677Z,101067.30
2019-01-11T00:53:09.061Z,101025.24
2019-01-11T00:53:44.683Z,101065.20
2019-01-11T00:54:20.088Z,101073.52
2019-01-11T00:54:55.738Z,101071.46
2019-01-11T00:55:31.679Z,101075.73
2019-01-11T00:56:07.074Z,101071.46
2019-01-11T00:56:42.463Z,101068.88
2019-01-11T00:57:17.883Z,101070.22
2019-01-11T00:57:53.538Z,101074.55
2019-01-11T00:58:28.930Z,101071.28
2019-01-11T00:59:04.754Z,101069.06
2019-01-11T00:59:40.137Z,101074.06
2019-01-11T01:00:18.373Z,101073.89
2019-01-11T01:00:53.772Z,101075.55
2019-01-11T01:01:29.170Z,101074.97
2019-01-11T01:02:04.734Z,101071.94
2019-01-11T01:02:40.397Z,101076.59
2019-01-11T01:03:15.800Z,101073.19
2019-01-11T01:03:51.208Z,101075.41
2019-01-11T01:04:26.914Z,101074.94
2019-01-11T01:05:02.373Z,101077.92
2019-01-11T01:05:38.009Z,101081.30
2019-01-11T01:06:13.547Z,101082.53
2019-01-11T01:06:49.193Z,101081.19
2019-01-11T01:07:24.830Z,101082.78
2019-01-11T01:08:00.201Z,101088.69
2019-01-11T01:08:35.616Z,101080.05
2019-01-11T01:09:11.026Z,101085.14
2019-01-11T01:09:46.495Z,101080.43
2019-01-11T01:10:23.032Z,101083.83
2019-01-11T01:10:59.488Z,101083.45
2019-01-11T01:11:35.109Z,101074.83
2019-01-11T01:12:10.875Z,101080.36
2019-01-11T01:12:46.310Z,101073.59
2019-01-11T01:13:21.722Z,101078.61
2019-01-11T01:13:57.457Z,101076.17
2019-01-11T01:14:33.117Z,101079.47
2019-01-11T01:15:11.376Z,101081.08
2019-01-11T01:15:47.007Z,101075.95
2019-01-11T01:16:22.485Z,101077.22
2019-01-11T01:16:58.120Z,101073.27
2019-01-11T01:17:34.137Z,101076.59
2019-01-11T01:18:09.895Z,101070.23
2019-01-11T01:18:45.269Z,101074.16
2019-01-11T01:19:20.671Z,101078.84
2019-01-11T01:19:56.212Z,101071.58
2019-01-11T01:20:31.595Z,101069.22
2019-01-11T01:21:06.996Z,101072.85
2019-01-11T01:21:42.405Z,101067.56
2019-01-11T01:22:18.062Z,101071.08
2019-01-11T01:22:53.760Z,101076.09
2019-01-11T01:23:29.328Z,101068.70
2019-01-11T01:24:05.071Z,101067.80
2019-01-11T01:24:40.525Z,101071.31
2019-01-11T01:25:16.034Z,101073.70
2019-01-11T01:25:51.408Z,101067.67
2019-01-11T01:26:26.807Z,101072.77
2019-01-11T01:27:02.228Z,101069.19
2019-01-11T01:27:37.690Z,101067.34
2019-01-11T01:28:13.851Z,101064.79
2019-01-11T01:28:49.876Z,101066.51
2019-01-11T01:29:25.337Z,101068.57
2019-01-11T01:30:00.695Z,101068.61
2019-01-11T01:30:36.099Z,101061.73
2019-01-11T01:31:11.515Z,101060.42
2019-01-11T01:31:46.930Z,101068.09
2019-01-11T01:32:22.332Z,101068.91
2019-01-11T01:32:57.779Z,101066.36
2019-01-11T01:33:33.192Z,101063.86
2019-01-11T01:34:08.578Z,101064.66
2019-01-11T01:34:43.974Z,101066.75
2019-01-11T01:35:19.746Z,101070.13
2019-01-11T01:35:55.447Z,101061.08
2019-01-11T01:36:30.878Z,101069.61
2019-01-11T01:37:06.410Z,101072.08
2019-01-11T01:37:42.138Z,101068.05
2019-01-11T01:38:17.844Z,101073.92
2019-01-11T01:38:53.296Z,101065.61
2019-01-11T01:39:28.952Z,101066.27
2019-01-11T01:40:05.344Z,101066.16
2019-01-11T01:40:40.743Z,101071.34
2019-01-11T01:41:16.168Z,101072.14
2019-01-11T01:41:51.580Z,101066.64
2019-01-11T01:42:26.987Z,101068.70
2019-01-11T01:43:02.420Z,101072.89
2019-01-11T01:43:37.821Z,101067.66
2019-01-11T01:44:13.482Z,101067.20
2019-01-11T01:44:48.913Z,101065.52
2019-01-11T01:45:24.307Z,101058.82
2019-01-11T01:45:59.722Z,101066.91
2019-01-11T01:46:35.153Z,101065.22
2019-01-11T01:47:10.827Z,101061.48
2019-01-11T01:47:46.486Z,101063.09
2019-01-11T01:48:21.932Z,101060.13
2019-01-11T01:48:57.659Z,101062.71
2019-01-11T01:49:33.049Z,101063.16
2019-01-11T01:50:09.399Z,101060.55
2019-01-11T01:50:45.078Z,101054.90
2019-01-11T01:51:20.489Z,101064.91
2019-01-11T01:51:55.901Z,101067.01
2019-01-11T01:52:31.289Z,101064.44
2019-01-11T01:53:06.720Z,101061.06
2019-01-11T01:53:42.158Z,101058.04
2019-01-11T01:54:17.698Z,101065.73
2019-01-11T01:54:53.180Z,101061.44
2019-01-11T01:55:28.821Z,101058.11
2019-01-11T01:56:04.209Z,101061.95
2019-01-11T01:56:39.979Z,101063.68
2019-01-11T01:57:15.631Z,101062.82
2019-01-11T01:57:51.102Z,101055.91
2019-01-11T01:58:26.782Z,101059.27
2019-01-11T01:59:02.197Z,101052.02
2019-01-11T01:59:37.828Z,101059.34
2019-01-11T02:00:16.121Z,101063.16
2019-01-11T02:00:51.536Z,101063.68
2019-01-11T02:01:27.166Z,101058.04
2019-01-11T02:02:02.870Z,101056.28
2019-01-11T02:02:38.256Z,101058.75
2019-01-11T02:03:13.685Z,101063.64
2019-01-11T02:03:49.093Z,101059.94
2019-01-11T02:04:24.811Z,101060.53
2019-01-11T02:05:00.235Z,101064.23
2019-01-11T02:05:35.607Z,101059.70
2019-01-11T02:06:11.105Z,101061.45
2019-01-11T02:06:46.769Z,101060.83
2019-01-11T02:07:22.157Z,101058.52
2019-01-11T02:07:58.036Z,101066.53
2019-01-11T02:08:33.420Z,101052.20
2019-01-11T02:09:09.688Z,101065.33
2019-01-11T02:09:45.120Z,101060.55
2019-01-11T02:10:20.866Z,101060.09
2019-01-11T02:10:56.779Z,101064.51
2019-01-11T02:11:32.175Z,101061.28
2019-01-11T02:12:07.579Z,101062.34
2019-01-11T02:12:43.367Z,101058.33
2019-01-11T02:13:18.793Z,101063.55
2019-01-11T02:13:54.262Z,101063.93
2019-01-11T02:14:29.666Z,101061.96
2019-01-11T02:15:06.073Z,101064.36
2019-01-11T02:15:41.509Z,101064.66
2019-01-11T02:16:17.023Z,101060.06
2019-01-11T02:16:52.654Z,101059.41
2019-01-11T02:17:28.284Z,101059.41
2019-01-11T02:18:04.124Z,101055.33
2019-01-11T02:18:39.634Z,101057.77
2019-01-11T02:19:15.073Z,101061.09
2019-01-11T02:19:50.712Z,101062.00
2019-01-11T02:20:26.099Z,101058.59
2019-01-11T02:21:01.628Z,101057.73
2019-01-11T02:21:37.264Z,101063.86
2019-01-11T02:22:12.755Z,101057.87
2019-01-11T02:22:48.431Z,101058.66
2019-01-11T02:23:24.099Z,101051.92
2019-01-11T02:23:59.546Z,101057.16
2019-01-11T02:24:34.996Z,101055.71
2019-01-11T02:25:10.791Z,101051.03
2019-01-11T02:25:46.406Z,101057.95
2019-01-11T02:26:21.781Z,101051.41
2019-01-11T02:26:57.180Z,101051.28
2019-01-11T02:27:32.855Z,101053.54
2019-01-11T02:28:08.537Z,101049.48
2019-01-11T02:28:43.934Z,101049.42
2019-01-11T02:29:19.361Z,101051.11
2019-01-11T02:29:55.102Z,101044.84
2019-01-11T02:30:30.598Z,101040.59
2019-01-11T02:31:06.047Z,101048.22
2019-01-11T02:31:42.002Z,101042.95
2019-01-11T02:32:17.737Z,101051.07
2019-01-11T02:32:53.451Z,101048.22
2019-01-11T02:33:28.815Z,101046.02
2019-01-11T02:34:04.402Z,101047.67
2019-01-11T02:34:39.848Z,101041.69
2019-01-11T02:35:15.234Z,101044.70
2019-01-11T02:35:50.635Z,101043.89
2019-01-11T02:36:26.064Z,101046.43
2019-01-11T02:37:01.494Z,101044.02
2019-01-11T02:37:36.930Z,101041.52
2019-01-11T02:38:12.330Z,101045.30
2019-01-11T02:38:47.716Z,101040.20
2019-01-11T02:39:23.167Z,101042.06
2019-01-11T02:39:58.811Z,101051.07
2019-01-11T02:40:34.587Z,101045.50
2019-01-11T02:41:10.111Z,101045.44
2019-01-11T02:41:45.494Z,101037.52
2019-01-11T02:42:20.888Z,101041.30
2019-01-11T02:42:56.275Z,101043.05
2019-01-11T02:43:31.690Z,101042.89
2019-01-11T02:44:07.081Z,101040.19
2019-01-11T02:44:42.746Z,101040.67
2019-01-11T02:45:19.953Z,101038.77
2019-01-11T02:45:55.601Z,101036.78
2019-01-11T02:46:30.995Z,101035.77
2019-01-11T02:47:06.754Z,101043.80
2019-01-11T02:47:42.158Z,101035.96
2019-01-11T02:48:17.552Z,101034.08
2019-01-11T02:48:52.993Z,101039.52
2019-01-11T02:49:28.492Z,101035.70
2019-01-11T02:50:05.217Z,101045.19
2019-01-11T02:50:40.595Z,101035.11
2019-01-11T02:51:15.989Z,101041.50
2019-01-11T02:51:51.613Z,101037.33
2019-01-11T02:52:27.017Z,101033.36
2019-01-11T02:53:02.468Z,101037.20
2019-01-11T02:53:37.868Z,101035.80
2019-01-11T02:54:13.242Z,101034.74
2019-01-11T02:54:48.659Z,101039.93
2019-01-11T02:55:24.060Z,101036.15
2019-01-11T02:55:59.442Z,101039.75
2019-01-11T02:56:34.911Z,101035.39
2019-01-11T02:57:10.607Z,101039.10
2019-01-11T02:57:46.004Z,101038.66
2019-01-11T02:58:21.948Z,101035.97
2019-01-11T02:58:57.634Z,101036.41
2019-01-11T02:59:33.748Z,101032.94
2019-01-11T03:00:12.838Z,101032.14
2019-01-11T03:00:48.339Z,101031.95
2019-01-11T03:01:23.983Z,101029.75
2019-01-11T03:01:59.378Z,101030.64
2019-01-11T03:02:34.815Z,101027.69
2019-01-11T03:03:10.202Z,101017.79
2019-01-11T03:03:45.631Z,101028.79
2019-01-11T03:04:21.917Z,101032.16
2019-01-11T03:04:57.349Z,101026.08
2019-01-11T03:05:32.756Z,101023.98
2019-01-11T03:06:08.432Z,101031.13
2019-01-11T03:06:43.832Z,101034.91
2019-01-11T03:07:19.240Z,101035.42
2019-01-11T03:07:54.895Z,101035.39
2019-01-11T03:08:30.289Z,101035.45
2019-01-11T03:09:07.376Z,101036.25
2019-01-11T03:09:43.088Z,101031.02
2019-01-11T03:10:20.497Z,101040.03
2019-01-11T03:10:56.467Z,101034.70
2019-01-11T03:11:31.871Z,101043.16
2019-01-11T03:12:07.564Z,101040.14
2019-01-11T03:12:42.962Z,101039.48
2019-01-11T03:13:18.352Z,101038.25
2019-01-11T03:13:53.737Z,101035.12
2019-01-11T03:14:29.122Z,101037.18
2019-01-11T03:15:06.500Z,101034.98
2019-01-11T03:15:41.895Z,101027.48
2019-01-11T03:16:17.288Z,101035.50
2019-01-11T03:16:52.671Z,101032.98
2019-01-11T03:17:28.309Z,101033.47
2019-01-11T03:18:04.016Z,101036.45
2019-01-11T03:18:39.435Z,101031.44
2019-01-11T03:19:14.825Z,101039.86
2019-01-11T03:19:50.546Z,101036.29
2019-01-11T03:20:26.047Z,101036.29
2019-01-11T03:21:01.501Z,101031.16
2019-01-11T03:21:36.901Z,101028.11
2019-01-11T03:22:12.373Z,101031.55
2019-01-11T03:22:47.868Z,101038.72
2019-01-11T03:23:23.525Z,101029.88
2019-01-11T03:23:58.912Z,101024.63
2019-01-11T03:24:34.314Z,101031.50
2019-01-11T03:25:09.898Z,101029.85
2019-01-11T03:25:45.574Z,101029.44
2019-01-11T03:26:20.951Z,101026.22
2019-01-11T03:26:56.439Z,101029.69
2019-01-11T03:27:31.963Z,101031.72
2019-01-11T03:28:07.633Z,101025.80
2019-01-11T03:28:43.333Z,101033.86
2019-01-11T03:29:18.721Z,101028.52
2019-01-11T03:29:54.144Z,101034.81
2019-01-11T03:30:29.566Z,101034.25
2019-01-11T03:31:14.574Z,101033.13
2019-01-11T03:31:49.956Z,101033.13
2019-01-11T03:32:25.402Z,101030.09
2019-01-11T03:33:00.778Z,101025.25
2019-01-11T03:33:36.226Z,101031.78
2019-01-11T03:34:11.895Z,101030.45
2019-01-11T03:35:06.446Z,101020.13
2019-01-11T03:35:42.130Z,101030.75
2019-01-11T03:36:17.530Z,101029.52
2019-01-11T03:36:52.937Z,101037.77
2019-01-11T03:37:28.325Z,101031.44
2019-01-11T03:38:03.729Z,101034.13
2019-01-11T03:38:39.146Z,101030.61
2019-01-11T03:39:14.536Z,101027.77
2019-01-11T03:39:49.926Z,101029.75
2019-01-11T03:40:26.370Z,101029.31
2019-01-11T03:41:01.802Z,101026.28
2019-01-11T03:41:49.399Z,101031.02
2019-01-11T03:42:25.099Z,101025.39
2019-01-11T03:43:00.776Z,101022.63
2019-01-11T03:43:36.210Z,101023.91
2019-01-11T03:44:11.592Z,101023.67
2019-01-11T03:44:46.990Z,101024.28
2019-01-11T03:45:24.096Z,101020.44
2019-01-11T03:45:59.489Z,101010.95
2019-01-11T03:46:34.935Z,101023.63
2019-01-11T03:47:10.338Z,101020.58
2019-01-11T03:47:45.728Z,101021.71
2019-01-11T03:48:21.373Z,101021.67
2019-01-11T03:48:57.149Z,101022.84
2019-01-11T03:49:32.830Z,101026.21
2019-01-11T03:50:09.086Z,101023.33
2019-01-11T03:50:44.474Z,101025.56
2019-01-11T03:51:19.877Z,101022.61
2019-01-11T03:51:55.377Z,101023.25
2019-01-11T03:52:30.759Z,101024.66
2019-01-11T03:53:06.188Z,101022.22
2019-01-11T03:53:41.589Z,101021.98
2019-01-11T03:54:17.236Z,101016.34
2019-01-11T03:54:52.729Z,101023.13
2019-01-11T03:55:28.246Z,101024.53
2019-01-11T03:56:03.723Z,101020.44
2019-01-11T03:56:39.138Z,101025.08
2019-01-11T03:57:14.527Z,101022.36
2019-01-11T03:57:50.023Z,101020.84
2019-01-11T03:58:25.427Z,101015.25
2019-01-11T03:59:00.981Z,101019.70
2019-01-11T03:59:36.397Z,101023.39
2019-01-11T04:00:14.722Z,101014.77
2019-01-11T04:00:50.108Z,101023.30
2019-01-11T04:01:25.739Z,101016.07
2019-01-11T04:02:01.153Z,101023.39
2019-01-11T04:02:36.720Z,101020.68
2019-01-11T04:03:12.142Z,101024.08
2019-01-11T04:03:47.564Z,101016.48
2019-01-11T04:04:23.204Z,101014.28
2019-01-11T04:04:58.694Z,101018.58
2019-01-11T04:05:34.231Z,101013.08
2019-01-11T04:06:09.658Z,101017.86
2019-01-11T04:06:45.149Z,101016.30
2019-01-11T04:07:20.793Z,101014.58
2019-01-11T04:07:56.188Z,101014.62
2019-01-11T04:08:31.883Z,101015.86
2019-01-11T04:09:10.335Z,101010.06
2019-01-11T04:09:45.731Z,101011.50
2019-01-11T04:10:26.979Z,101016.71
2019-01-11T04:11:02.553Z,101014.33
2019-01-11T04:11:38.232Z,101009.36
2019-01-11T04:12:13.645Z,101008.38
2019-01-11T04:12:49.040Z,101011.94
2019-01-11T04:13:30.490Z,101015.73
2019-01-11T04:14:01.935Z,101019.16
2019-01-11T04:14:37.318Z,101019.54
2019-01-11T04:15:13.465Z,101012.77
2019-01-11T04:15:48.845Z,101020.50
2019-01-11T04:16:24.206Z,101018.94
2019-01-11T04:16:59.617Z,101014.83
2019-01-11T04:17:35.031Z,101014.04
2019-01-11T04:18:35.604Z,101015.34
2019-01-11T04:19:15.530Z,101021.39
2019-01-11T04:19:50.927Z,101021.75
2019-01-11T04:20:26.323Z,101020.81
2019-01-11T04:21:02.080Z,101027.83
2019-01-11T04:21:37.460Z,101026.52
2019-01-11T04:22:20.991Z,101029.58
2019-01-11T04:22:57.509Z,101027.48
2019-01-11T04:23:32.975Z,101030.31
2019-01-11T04:24:08.406Z,101026.70
2019-01-11T04:25:04.546Z,101025.36
2019-01-11T04:25:42.201Z,101031.92
2019-01-11T04:26:17.861Z,101031.47
2019-01-11T04:26:53.503Z,101027.21
2019-01-11T04:27:29.209Z,101024.43
2019-01-11T04:28:05.698Z,101029.03
2019-01-11T04:28:41.132Z,101027.11
2019-01-11T04:29:19.609Z,101028.48
2019-01-11T04:29:54.977Z,101031.16
2019-01-11T04:30:30.354Z,101022.40
2019-01-11T04:31:05.782Z,101024.22
2019-01-11T04:31:41.215Z,101022.50
2019-01-11T04:32:16.847Z,101028.68
2019-01-11T04:32:52.259Z,101030.71
2019-01-11T04:33:27.673Z,101025.55
2019-01-11T04:34:03.484Z,101034.08
2019-01-11T04:34:38.961Z,101032.94
2019-01-11T04:35:14.349Z,101027.75
2019-01-11T04:35:49.822Z,101027.23
2019-01-11T04:36:25.205Z,101024.66
2019-01-11T04:37:00.601Z,101026.89
2019-01-11T04:37:36.106Z,101027.97
2019-01-11T04:38:11.619Z,101026.13
2019-01-11T04:38:47.049Z,101030.74
2019-01-11T04:39:22.736Z,101027.44
2019-01-11T04:39:58.539Z,101018.65
2019-01-11T04:40:34.549Z,101025.78
2019-01-11T04:41:10.017Z,101025.62
2019-01-11T04:41:45.431Z,101021.77
2019-01-11T04:42:20.805Z,101026.06
2019-01-11T04:42:56.211Z,101026.13
2019-01-11T04:43:31.613Z,101029.34
2019-01-11T04:44:07.676Z,101022.88
2019-01-11T04:44:43.373Z,101030.06
2019-01-11T04:45:18.768Z,101026.38
2019-01-11T04:45:54.154Z,101023.20
2019-01-11T04:46:29.656Z,101025.69
2019-01-11T04:47:05.118Z,101025.90
2019-01-11T04:47:40.625Z,101024.43
2019-01-11T04:48:16.094Z,101029.72
2019-01-11T04:48:52.106Z,101025.48
2019-01-11T04:49:27.522Z,101024.00
2019-01-11T04:50:09.286Z,101025.08
2019-01-11T04:50:40.078Z,101023.84
2019-01-11T04:51:15.472Z,101020.09
2019-01-11T04:51:51.124Z,101024.25
2019-01-11T04:52:26.552Z,101028.86
2019-01-11T04:53:02.014Z,101030.06
2019-01-11T04:53:37.726Z,101030.27
2019-01-11T04:54:13.159Z,101027.48
2019-01-11T04:54:48.670Z,101025.36
2019-01-11T04:55:24.053Z,101025.08
2019-01-11T04:55:59.717Z,101024.70
2019-01-11T04:56:35.180Z,101020.91
2019-01-11T04:57:10.651Z,101022.12
2019-01-11T04:57:46.035Z,101026.80
2019-01-11T04:58:21.682Z,101022.67
2019-01-11T04:58:57.344Z,101020.98
2019-01-11T04:59:32.758Z,101025.42
2019-01-11T05:00:17.106Z,101020.84
2019-01-11T05:00:52.580Z,101014.01
2019-01-11T05:01:27.994Z,101020.68
2019-01-11T05:02:03.583Z,101026.11
2019-01-11T05:02:39.039Z,101019.20
2019-01-11T05:03:14.790Z,101020.41
2019-01-11T05:03:50.436Z,101020.34
2019-01-11T05:04:25.890Z,101023.13
2019-01-11T05:05:01.573Z,101022.33
2019-01-11T05:05:37.340Z,101021.71
2019-01-11T05:06:12.763Z,101015.87
2019-01-11T05:06:48.166Z,101020.95
2019-01-11T05:07:23.599Z,101017.72
2019-01-11T05:07:58.994Z,101025.80
2019-01-11T05:08:34.587Z,101027.52
2019-01-11T05:09:10.289Z,101020.41
2019-01-11T05:09:45.744Z,101009.92
2019-01-11T05:10:21.599Z,101013.88
2019-01-11T05:10:57.268Z,101019.30
2019-01-11T05:11:32.966Z,101008.45
2019-01-11T05:12:08.371Z,101025.80
2019-01-11T05:12:43.799Z,101021.43
2019-01-11T05:13:30.258Z,101016.59
2019-01-11T05:14:05.748Z,101019.85
2019-01-11T05:14:41.178Z,101017.20
2019-01-11T05:15:16.690Z,101014.35
2019-01-11T05:15:52.708Z,101013.77
2019-01-11T05:16:28.329Z,101011.23
2019-01-11T05:17:03.877Z,101015.05
2019-01-11T05:17:39.306Z,101014.22
2019-01-11T05:18:14.730Z,101008.48
2019-01-11T05:18:50.398Z,101011.44
2019-01-11T05:19:25.911Z,101007.17
2019-01-11T05:20:01.687Z,101010.95
2019-01-11T05:20:37.151Z,101015.07
2019-01-11T05:21:12.580Z,101013.19
2019-01-11T05:21:47.998Z,101014.19
2019-01-11T05:22:23.547Z,101013.33
2019-01-11T05:22:58.970Z,101018.58
2019-01-11T05:23:34.455Z,101014.17
2019-01-11T05:24:09.912Z,101014.25
2019-01-11T05:24:45.339Z,101010.67
2019-01-11T05:25:20.850Z,101012.43
2019-01-11T05:25:56.926Z,101018.38
2019-01-11T05:26:32.966Z,101017.27
2019-01-11T05:27:08.396Z,101017.69
2019-01-11T05:27:43.797Z,101014.36
2019-01-11T05:28:19.563Z,101013.53
2019-01-11T05:28:55.311Z,101013.16
2019-01-11T05:29:31.825Z,101014.39
2019-01-11T05:30:10.875Z,101013.70
2019-01-11T05:30:46.300Z,101008.50
2019-01-11T05:31:21.748Z,101012.16
2019-01-11T05:31:57.165Z,101013.22
2019-01-11T05:32:32.598Z,101013.88
2019-01-11T05:33:08.293Z,101005.38
2019-01-11T05:33:43.714Z,101006.27
2019-01-11T05:34:19.110Z,101006.66
2019-01-11T05:34:54.552Z,101015.97
2019-01-11T05:35:29.981Z,101008.75
2019-01-11T05:36:05.644Z,101004.08
2019-01-11T05:36:41.122Z,101010.91
2019-01-11T05:37:16.585Z,101006.00
2019-01-11T05:37:52.103Z,101009.27
2019-01-11T05:38:27.524Z,101007.09
2019-01-11T05:39:03.869Z,101006.72
2019-01-11T05:39:39.594Z,101008.99
2019-01-11T05:40:17.581Z,101003.77
2019-01-11T05:40:53.128Z,100999.09
2019-01-11T05:41:28.624Z,101005.42
2019-01-11T05:42:04.628Z,101007.96
2019-01-11T05:42:40.424Z,101005.52
2019-01-11T05:43:16.178Z,101002.16
2019-01-11T05:43:51.860Z,100991.36
2019-01-11T05:44:27.672Z,100998.27
2019-01-11T05:45:03.511Z,100997.95
2019-01-11T05:45:38.953Z,100994.00
2019-01-11T05:46:14.371Z,100998.48
2019-01-11T05:46:49.770Z,100999.77
2019-01-11T05:47:25.177Z,100995.97
2019-01-11T05:48:00.580Z,100992.41
2019-01-11T05:48:36.097Z,100988.30
2019-01-11T05:49:11.786Z,100987.00
2019-01-11T05:49:47.223Z,100992.69
2019-01-11T05:50:24.329Z,100992.98
2019-01-11T05:51:00.071Z,100994.26
2019-01-11T05:51:35.570Z,100994.00
2019-01-11T05:52:11.265Z,100994.83
2019-01-11T05:52:46.740Z,100992.15
2019-01-11T05:53:22.152Z,100993.87
2019-01-11T05:53:57.555Z,100994.72
2019-01-11T05:54:33.232Z,100999.95
2019-01-11T05:55:10.628Z,100954.52
2019-01-11T05:55:47.506Z,100995.96
2019-01-11T05:56:22.893Z,100992.69
2019-01-11T05:56:58.378Z,100988.78
2019-01-11T05:57:33.793Z,100994.48
2019-01-11T05:58:31.171Z,100996.55
2019-01-11T05:59:09.816Z,100994.55
2019-01-11T05:59:45.227Z,100995.45
2019-01-11T06:00:20.672Z,100987.89
2019-01-11T06:00:56.334Z,100988.78
2019-01-11T06:01:32.003Z,100994.34
2019-01-11T06:02:07.593Z,100991.22
2019-01-11T06:02:43.732Z,100993.83
2019-01-11T06:03:19.144Z,100994.31
2019-01-11T06:03:54.801Z,100995.30
2019-01-11T06:04:43.631Z,100996.09
2019-01-11T06:05:19.075Z,100995.69
2019-01-11T06:05:54.563Z,101000.91
2019-01-11T06:06:48.943Z,100998.23
2019-01-11T06:07:26.883Z,100997.17
2019-01-11T06:08:08.932Z,100998.44
2019-01-11T06:08:44.345Z,100992.05
2019-01-11T06:09:19.769Z,100988.51
2019-01-11T06:09:55.506Z,100926.90
2019-01-11T06:10:30.987Z,100998.27
2019-01-11T06:11:06.623Z,100987.27
2019-01-11T06:11:42.281Z,100993.28
2019-01-11T06:12:17.692Z,101000.50
2019-01-11T06:12:53.082Z,100995.45
2019-01-11T06:13:28.472Z,100992.56
2019-01-11T06:14:04.030Z,100988.43
2019-01-11T06:14:39.457Z,100988.78
2019-01-11T06:15:14.845Z,100993.28
2019-01-11T06:15:50.573Z,100995.31
2019-01-11T06:16:26.010Z,100992.66
2019-01-11T06:17:01.708Z,100993.94
2019-01-11T06:17:37.166Z,100989.27
2019-01-11T06:18:12.604Z,100990.71
2019-01-11T06:18:48.085Z,100994.59
2019-01-11T06:19:23.487Z,100995.41
2019-01-11T06:19:58.880Z,100991.50
2019-01-11T06:20:34.872Z,100987.65
2019-01-11T06:21:10.291Z,100985.75
2019-01-11T06:21:45.733Z,100989.61
2019-01-11T06:22:21.151Z,100983.25
2019-01-11T06:22:56.899Z,100987.26
2019-01-11T06:23:32.619Z,100982.07
2019-01-11T06:24:08.060Z,100985.51
2019-01-11T06:24:43.458Z,100984.23
2019-01-11T06:25:19.122Z,100984.72
2019-01-11T06:25:54.499Z,100979.46
2019-01-11T06:26:29.972Z,100974.79
2019-01-11T06:27:05.671Z,100978.19
2019-01-11T06:27:41.203Z,100982.86
2019-01-11T06:28:16.600Z,100985.54
2019-01-11T06:28:52.021Z,100982.00
2019-01-11T06:29:27.687Z,100982.52
2019-01-11T06:30:03.213Z,100981.50
2019-01-11T06:30:38.907Z,100980.04
2019-01-11T06:31:14.331Z,100980.00
2019-01-11T06:31:50.035Z,100973.27
2019-01-11T06:32:25.468Z,100980.07
2019-01-11T06:33:00.864Z,100978.25
2019-01-11T06:33:36.573Z,100980.48
2019-01-11T06:34:12.069Z,100977.27
2019-01-11T06:34:47.470Z,100973.33
2019-01-11T06:35:22.859Z,100974.19
2019-01-11T06:35:58.244Z,100971.95
2019-01-11T06:36:33.728Z,100968.23
2019-01-11T06:37:09.167Z,100978.00
2019-01-11T06:37:44.586Z,100977.14
2019-01-11T06:38:20.082Z,100979.66
2019-01-11T06:38:55.527Z,100985.16
2019-01-11T06:39:31.008Z,100977.08
2019-01-11T06:40:07.334Z,100978.80
2019-01-11T06:40:42.764Z,100977.97
2019-01-11T06:41:18.170Z,100974.22
2019-01-11T06:41:56.495Z,100986.81
2019-01-11T06:42:31.924Z,100982.11
2019-01-11T06:43:07.389Z,100981.69
2019-01-11T06:43:44.679Z,100982.45
2019-01-11T06:44:20.091Z,100978.02
2019-01-11T06:44:55.695Z,100985.59
2019-01-11T06:45:31.101Z,100980.88
2019-01-11T06:46:06.601Z,100988.78
2019-01-11T06:46:42.068Z,100979.87
2019-01-11T06:47:18.532Z,100980.80
2019-01-11T06:47:54.136Z,100977.14
2019-01-11T06:48:40.603Z,100979.41
2019-01-11T06:49:17.302Z,100982.33
2019-01-11T06:49:52.627Z,100981.41